Time;durP1;ratioP1;P1;durP2;ratioP2;P2;SDS_P1;SDS_P2;PMS_P1;PMS_P2;Temp;Humidity;BMP_temperature;BMP_pressure;BME280_temperature;BME280_humidity;BME280_pressure;Samples;Min_cycle;Max_cycle;Signal;HPM_P1;HPM_P2
2023/05/12 00:00:06;;;;;;;;;;;;;;;15.55;58.91;100477.66;5330026;32;34996;-81
2023/05/12 00:03:08;;;;;;;;;;;;;;;15.02;60.29;100483.41;5337484;32;36654;-80
2023/05/12 00:06:11;;;;;;;;;;;;;;;14.94;60.21;100483.81;5312623;32;34850;-81
2023/05/12 00:09:13;;;;;;;;;;;;;;;15.51;59.13;100476.12;5336497;32;36278;-70
2023/05/12 00:12:15;;;;;;;;;;;;;;;15.95;56.66;100480.66;5312927;32;45478;-70
2023/05/12 00:15:18;;;;;;;;;;;;;;;15.47;58.33;100481.72;5333351;32;33827;-70
2023/05/12 00:18:20;;;;;;;;;;;;;;;14.48;63.60;100485.47;5332705;32;35654;-70
2023/05/12 00:21:22;;;;;;;;;;;;;;;14.87;62.17;100474.50;5329597;32;35452;-81
2023/05/12 00:24:24;;;;;;;;;;;;;;;15.55;58.41;100466.22;5335618;32;34240;-81
2023/05/12 00:27:28;;;;;;;;;;;;;;;16.05;56.73;100471.22;5312765;32;35161;-70
2023/05/12 00:30:30;;;;;;;;;;;;;;;14.58;62.83;100479.59;5336179;32;35077;-69
2023/05/12 00:33:32;;;;;;;;;;;;;;;14.38;63.83;100478.94;5325586;32;35031;-76
2023/05/12 00:36:34;;;;;;;;;;;;;;;14.19;65.79;100477.25;5326414;32;35636;-70
2023/05/12 00:39:36;;;;;;;;;;;;;;;14.45;65.58;100461.81;5321937;32;35255;-70
2023/05/12 00:42:39;;;;;;;;;;;;;;;14.02;67.85;100480.78;5329663;32;35972;-71
2023/05/12 00:45:40;;;;;;;;;;;;;;;13.98;69.26;100473.97;5335854;32;34305;-80
2023/05/12 00:48:43;;;;;;;;;;;;;;;14.39;66.66;100467.41;5294019;32;35748;-80
2023/05/12 00:51:45;;;;;;;;;;;;;;;14.43;66.46;100474.25;5321981;32;35605;-69
2023/05/12 00:54:47;;;;;;;;;;;;;;;15.01;64.04;100461.38;5327391;32;47432;-71
2023/05/12 00:57:52;;;;;;;;;;;;;;;14.24;68.06;100467.31;5314550;32;34230;-70
2023/05/12 01:00:55;;;;;;;;;;;;;;;14.36;66.40;100469.31;5336989;32;34781;-76
2023/05/12 01:03:57;;;;;;;;;;;;;;;14.31;67.96;100468.69;5326784;32;35280;-81
2023/05/12 01:06:59;;;;;;;;;;;;;;;13.93;68.56;100459.28;5324713;32;35840;-81
2023/05/12 01:10:02;;;;;;;;;;;;;;;14.37;67.92;100462.22;5312306;32;35598;-69
2023/05/12 01:13:04;;;;;;;;;;;;;;;14.20;68.04;100457.81;5338786;32;35443;-69
2023/05/12 01:16:06;;;;;;;;;;;;;;;13.91;69.06;100464.66;5316685;32;33281;-69
2023/05/12 01:19:09;;;;;;;;;;;;;;;14.46;68.72;100466.16;5313243;32;34521;-81
2023/05/12 01:22:11;;;;;;;;;;;;;;;15.24;64.77;100456.53;5338268;32;34489;-69
2023/05/12 01:25:13;;;;;;;;;;;;;;;14.74;65.61;100458.44;5311962;32;35369;-69
2023/05/12 01:28:15;;;;;;;;;;;;;;;15.20;62.64;100455.00;5335541;32;45281;-75
2023/05/12 01:31:17;;;;;;;;;;;;;;;14.99;64.78;100468.50;5311876;32;35680;-82
2023/05/12 01:34:21;;;;;;;;;;;;;;;14.54;66.23;100462.19;5333101;32;35535;-81
2023/05/12 01:37:27;;;;;;;;;;;;;;;15.38;60.36;100464.53;5312488;32;34900;-81
2023/05/12 01:40:29;;;;;;;;;;;;;;;15.54;58.93;100465.38;5326984;32;35850;-82
2023/05/12 01:43:31;;;;;;;;;;;;;;;15.45;60.30;100460.59;5335911;32;34666;-82
2023/05/12 01:46:33;;;;;;;;;;;;;;;14.49;65.51;100456.31;5325296;32;35329;-76
2023/05/12 01:49:35;;;;;;;;;;;;;;;14.88;65.06;100463.84;5315984;32;34261;-70
2023/05/12 01:52:37;;;;;;;;;;;;;;;15.73;60.05;100469.62;5325591;32;35249;-69
2023/05/12 01:55:39;;;;;;;;;;;;;;;15.70;59.77;100466.19;5335537;32;34317;-69
2023/05/12 01:58:41;;;;;;;;;;;;;;;15.65;60.28;100478.03;5328192;32;35623;-70
2023/05/12 02:01:43;;;;;;;;;;;;;;;15.52;60.61;100482.28;5328722;32;35487;-69
2023/05/12 02:04:45;;;;;;;;;;;;;;;15.10;62.23;100478.50;5336335;32;35226;-69
2023/05/12 02:07:47;;;;;;;;;;;;;;;15.45;62.08;100485.28;5325975;32;44411;-82
2023/05/12 02:10:50;;;;;;;;;;;;;;;15.36;62.48;100482.31;5313912;32;34931;-81
2023/05/12 02:13:51;;;;;;;;;;;;;;;15.34;62.33;100477.13;5325123;32;35789;-81
2023/05/12 02:16:54;;;;;;;;;;;;;;;14.94;64.85;100486.47;5333901;32;36077;-80
2023/05/12 02:19:56;;;;;;;;;;;;;;;15.18;62.38;100478.94;5316737;32;35339;-70
2023/05/12 02:22:58;;;;;;;;;;;;;;;15.28;62.07;100489.88;5324833;32;35574;-69
2023/05/12 02:26:00;;;;;;;;;;;;;;;14.69;64.30;100491.41;5325367;32;35124;-80
2023/05/12 02:29:02;;;;;;;;;;;;;;;14.44;66.73;100492.69;5326073;32;35289;-71
2023/05/12 02:32:04;;;;;;;;;;;;;;;14.34;66.53;100492.31;5333707;32;34666;-71
2023/05/12 02:35:07;;;;;;;;;;;;;;;15.28;62.89;100482.78;5308749;32;34801;-79
2023/05/12 02:38:09;;;;;;;;;;;;;;;15.21;63.25;100483.22;5318908;32;33174;-70
2023/05/12 02:41:11;;;;;;;;;;;;;;;14.51;67.47;100494.09;5329759;32;34975;-76
2023/05/12 02:44:15;;;;;;;;;;;;;;;14.18;68.69;100486.12;5325431;32;35081;-69
2023/05/12 02:47:17;;;;;;;;;;;;;;;14.66;67.80;100489.75;5323925;32;45268;-81
2023/05/12 02:50:20;;;;;;;;;;;;;;;14.13;69.09;100495.22;5315589;32;35165;-81
2023/05/12 02:53:22;;;;;;;;;;;;;;;14.15;68.34;100496.84;5321818;32;35323;-81
2023/05/12 02:56:24;;;;;;;;;;;;;;;15.23;64.12;100486.62;5329971;32;35470;-69
2023/05/12 02:59:26;;;;;;;;;;;;;;;13.89;70.84;100500.84;5329893;32;34617;-71
2023/05/12 03:02:28;;;;;;;;;;;;;;;14.29;67.51;100501.41;5331622;32;34728;-70
2023/05/12 03:05:30;;;;;;;;;;;;;;;14.50;67.48;100496.84;5323651;32;35239;-75
2023/05/12 03:08:32;;;;;;;;;;;;;;;14.24;68.24;100503.47;5334893;32;34696;-69
2023/05/12 03:11:34;;;;;;;;;;;;;;;14.17;69.17;100505.56;5322438;32;35702;-69
2023/05/12 03:14:36;;;;;;;;;;;;;;;13.92;69.86;100505.97;5335033;32;34875;-69
2023/05/12 03:17:39;;;;;;;;;;;;;;;14.07;68.79;100497.25;5325209;32;35842;-70
2023/05/12 03:20:41;;;;;;;;;;;;;;;13.78;70.60;100498.75;5319886;32;34132;-69
2023/05/12 03:23:43;;;;;;;;;;;;;;;13.91;71.83;100493.72;5332011;32;34833;-70
2023/05/12 03:26:44;;;;;;;;;;;;;;;13.52;73.97;100499.19;5326593;32;34957;-70
2023/05/12 03:29:46;;;;;;;;;;;;;;;13.50;74.75;100501.91;5333602;32;44676;-80
2023/05/12 03:32:48;;;;;;;;;;;;;;;14.18;71.54;100498.50;5325754;32;34430;-80
2023/05/12 03:35:50;;;;;;;;;;;;;;;14.47;69.32;100504.91;5336262;32;34925;-80
2023/05/12 03:38:52;;;;;;;;;;;;;;;13.91;72.94;100509.56;5326199;32;34723;-70
2023/05/12 03:41:54;;;;;;;;;;;;;;;14.60;67.90;100498.88;5330653;32;34465;-69
2023/05/12 03:44:56;;;;;;;;;;;;;;;14.59;67.96;100509.53;5331240;32;35811;-69
2023/05/12 03:47:58;;;;;;;;;;;;;;;13.95;68.91;100511.09;5312686;32;34406;-75
2023/05/12 03:51:00;;;;;;;;;;;;;;;14.86;66.05;100501.91;5320619;32;35113;-80
2023/05/12 03:54:02;;;;;;;;;;;;;;;14.36;68.07;100502.78;5329531;32;35502;-80
2023/05/12 03:57:04;;;;;;;;;;;;;;;14.48;67.42;100507.47;5339264;32;35364;-69
2023/05/12 04:00:07;;;;;;;;;;;;;;;13.62;72.53;100505.72;5312917;32;35130;-80
2023/05/12 04:03:08;;;;;;;;;;;;;;;13.93;72.19;100509.47;5330125;32;34984;-80
2023/05/12 04:06:11;;;;;;;;;;;;;;;13.98;71.50;100510.09;5333388;32;34782;-75
2023/05/12 04:09:12;;;;;;;;;;;;;;;13.38;71.78;100520.97;5313383;32;35700;-70
2023/05/12 04:12:15;;;;;;;;;;;;;;;14.04;69.14;100517.72;5336935;32;34763;-70
2023/05/12 04:15:17;;;;;;;;;;;;;;;14.43;67.66;100525.34;5327691;32;46476;-69
2023/05/12 04:18:19;;;;;;;;;;;;;;;14.46;69.64;100530.50;5339470;32;35476;-69
2023/05/12 04:21:21;;;;;;;;;;;;;;;15.15;64.27;100514.38;5315352;32;34789;-81
2023/05/12 04:24:24;;;;;;;;;;;;;;;14.05;70.60;100533.47;5330399;32;35038;-69
2023/05/12 04:27:26;;;;;;;;;;;;;;;14.61;67.06;100532.31;5322107;32;35590;-81
2023/05/12 04:30:28;;;;;;;;;;;;;;;14.97;65.50;100533.06;5326842;32;35480;-80
2023/05/12 04:33:30;;;;;;;;;;;;;;;14.46;67.33;100530.50;5334953;32;34207;-80
2023/05/12 04:36:32;;;;;;;;;;;;;;;14.10;68.99;100525.28;5292614;32;35074;-71
2023/05/12 04:39:34;;;;;;;;;;;;;;;14.73;65.97;100538.75;5341929;32;35307;-70
2023/05/12 04:42:36;;;;;;;;;;;;;;;14.50;68.35;100534.72;5326547;32;35341;-70
2023/05/12 04:45:38;;;;;;;;;;;;;;;15.10;64.22;100532.31;5327908;32;35601;-70
2023/05/12 04:48:42;;;;;;;;;;;;;;;14.56;66.12;100531.75;5300583;32;34572;-80
2023/05/12 04:51:44;;;;;;;;;;;;;;;15.00;64.82;100522.31;5327482;32;35732;-81
2023/05/12 04:54:46;;;;;;;;;;;;;;;14.52;66.31;100532.81;5339763;32;43131;-79
2023/05/12 04:57:47;;;;;;;;;;;;;;;14.62;64.82;100534.06;5330769;32;35179;-79
2023/05/12 05:00:49;;;;;;;;;;;;;;;14.61;66.67;100529.69;5335876;32;34797;-70
2023/05/12 05:03:51;;;;;;;;;;;;;;;13.48;72.08;100531.97;5315313;32;35007;-82
2023/05/12 05:06:54;;;;;;;;;;;;;;;14.19;70.37;100530.12;5315661;32;36023;-70
2023/05/12 05:09:56;;;;;;;;;;;;;;;14.66;67.42;100529.44;5335676;32;35474;-70
2023/05/12 05:12:58;;;;;;;;;;;;;;;14.15;70.00;100533.00;5324745;32;35076;-69
2023/05/12 05:16:00;;;;;;;;;;;;;;;14.07;70.58;100546.63;5337415;32;35335;-73
2023/05/12 05:19:02;;;;;;;;;;;;;;;13.59;73.40;100540.22;5312987;32;35945;-69
2023/05/12 05:22:09;;;;;;;;;;;;;;;14.71;68.14;100540.62;5322297;32;35375;-80
2023/05/12 05:25:12;;;;;;;;;;;;;;;14.74;67.46;100539.59;5329558;32;35327;-71
2023/05/12 05:28:14;;;;;;;;;;;;;;;15.01;66.10;100537.28;5322653;32;36063;-80
2023/05/12 05:31:16;;;;;;;;;;;;;;;14.79;67.34;100541.06;5323222;32;47054;-81
2023/05/12 05:34:18;;;;;;;;;;;;;;;14.38;69.52;100548.53;5320873;32;35639;-70
2023/05/12 05:37:20;;;;;;;;;;;;;;;14.90;67.25;100533.41;5322108;32;34901;-80
2023/05/12 05:40:22;;;;;;;;;;;;;;;14.88;65.81;100548.53;5329861;32;35129;-81
2023/05/12 05:43:24;;;;;;;;;;;;;;;14.44;69.74;100540.28;5342010;32;34839;-81
2023/05/12 05:46:26;;;;;;;;;;;;;;;15.06;66.97;100544.00;5329198;32;33023;-80
2023/05/12 05:49:28;;;;;;;;;;;;;;;15.26;64.94;100542.03;5308902;32;34872;-77
2023/05/12 05:52:30;;;;;;;;;;;;;;;15.18;64.79;100542.47;5340253;32;34395;-81
2023/05/12 05:55:32;;;;;;;;;;;;;;;15.16;65.26;100544.34;5330205;32;35495;-79
2023/05/12 05:58:34;;;;;;;;;;;;;;;15.33;64.72;100544.28;5344002;32;34796;-71
2023/05/12 06:01:36;;;;;;;;;;;;;;;15.40;63.40;100548.28;5333511;32;35050;-83
2023/05/12 06:04:38;;;;;;;;;;;;;;;15.44;63.35;100543.66;5329058;32;34214;-75
2023/05/12 06:07:40;;;;;;;;;;;;;;;16.08;60.77;100552.34;5336333;32;34991;-91
2023/05/12 06:10:42;;;;;;;;;;;;;;;15.92;61.17;100555.06;5336249;32;34280;-75
2023/05/12 06:13:44;;;;;;;;;;;;;;;15.16;64.02;100566.37;5343822;32;36042;-82
2023/05/12 06:16:46;;;;;;;;;;;;;;;15.31;63.53;100558.53;5338420;32;46023;-83
2023/05/12 06:19:48;;;;;;;;;;;;;;;14.33;66.50;100563.78;5343671;32;34878;-83
2023/05/12 06:22:51;;;;;;;;;;;;;;;14.78;65.74;100564.97;5320924;32;35494;-69
2023/05/12 06:25:53;;;;;;;;;;;;;;;15.46;63.53;100557.69;5343826;32;34403;-67
2023/05/12 06:28:55;;;;;;;;;;;;;;;15.16;66.43;100560.25;5323488;32;35319;-67
2023/05/12 06:31:57;;;;;;;;;;;;;;;14.96;67.30;100552.53;5336268;32;34415;-83
2023/05/12 06:34:59;;;;;;;;;;;;;;;14.94;67.11;100567.62;5318208;32;35791;-68
2023/05/12 06:38:00;;;;;;;;;;;;;;;15.34;64.83;100558.38;5327390;32;34587;-82
2023/05/12 06:41:03;;;;;;;;;;;;;;;15.58;62.73;100562.25;5332685;32;34421;-83
2023/05/12 06:44:05;;;;;;;;;;;;;;;15.39;63.32;100558.94;5332331;32;35282;-67
2023/05/12 06:47:10;;;;;;;;;;;;;;;15.11;64.36;100562.28;5321530;32;34603;-68
2023/05/12 06:50:12;;;;;;;;;;;;;;;15.35;63.97;100555.63;5329883;32;35703;-83
2023/05/12 06:53:14;;;;;;;;;;;;;;;15.53;64.01;100556.38;5326778;32;35026;-69
2023/05/12 06:56:16;;;;;;;;;;;;;;;16.00;61.23;100558.09;5345723;32;47188;-82
2023/05/12 06:59:18;;;;;;;;;;;;;;;15.61;63.04;100559.44;5338733;32;34917;-85
2023/05/12 07:02:22;;;;;;;;;;;;;;;16.19;60.30;100558.72;5337032;32;35395;-84
2023/05/12 07:05:24;;;;;;;;;;;;;;;15.92;61.82;100565.66;5322801;32;34829;-84
2023/05/12 07:08:26;;;;;;;;;;;;;;;15.66;62.22;100553.94;5346203;32;34890;-68
2023/05/12 07:11:28;;;;;;;;;;;;;;;15.97;60.41;100558.28;5346574;32;34750;-83
2023/05/12 07:14:30;;;;;;;;;;;;;;;15.30;65.92;100562.97;5339229;32;35183;-68
2023/05/12 07:17:32;;;;;;;;;;;;;;;15.54;65.51;100560.75;5332416;32;35034;-69
2023/05/12 07:20:34;;;;;;;;;;;;;;;16.02;63.15;100561.50;5339043;32;34535;-77
2023/05/12 07:23:36;;;;;;;;;;;;;;;16.24;61.70;100555.81;5349889;32;35782;-73
2023/05/12 07:26:38;;;;;;;;;;;;;;;16.11;61.48;100555.69;5340225;32;34779;-72
2023/05/12 07:29:40;;;;;;;;;;;;;;;16.18;60.89;100556.19;5332889;32;34361;-71
2023/05/12 07:32:42;;;;;;;;;;;;;;;16.35;61.29;100553.34;5344565;32;34440;-82
2023/05/12 07:35:44;;;;;;;;;;;;;;;16.72;58.28;100557.28;5310646;32;34279;-66
2023/05/12 07:38:46;;;;;;;;;;;;;;;15.80;62.06;100551.31;5333012;32;44878;-68
2023/05/12 07:41:49;;;;;;;;;;;;;;;16.21;60.61;100559.47;5342243;32;34261;-79
2023/05/12 07:44:51;;;;;;;;;;;;;;;15.94;61.01;100558.47;5348377;32;34406;-83
2023/05/12 07:47:53;;;;;;;;;;;;;;;15.60;62.42;100560.38;5314814;32;35133;-68
2023/05/12 07:50:56;;;;;;;;;;;;;;;16.09;60.71;100556.69;5341945;32;35584;-67
2023/05/12 07:53:59;;;;;;;;;;;;;;;16.62;59.35;100561.44;5349330;32;35606;-69
2023/05/12 07:57:01;;;;;;;;;;;;;;;15.78;61.13;100568.25;5345417;32;34400;-93
2023/05/12 08:00:03;;;;;;;;;;;;;;;15.81;61.92;100560.13;5334285;32;34543;-82
2023/05/12 08:03:06;;;;;;;;;;;;;;;16.49;58.56;100565.78;5328490;32;34377;-67
2023/05/12 08:06:09;;;;;;;;;;;;;;;15.45;62.11;100569.19;5338769;32;34746;-80
2023/05/12 08:09:11;;;;;;;;;;;;;;;15.10;64.67;100572.00;5342287;32;34206;-67
2023/05/12 08:12:13;;;;;;;;;;;;;;;15.41;60.52;100571.16;5345084;32;34249;-82
2023/05/12 08:15:18;;;;;;;;;;;;;;;15.80;61.70;100563.72;5345245;32;44513;-74
2023/05/12 08:18:21;;;;;;;;;;;;;;;15.65;64.95;100571.63;5324652;32;35577;-71
2023/05/12 08:21:23;;;;;;;;;;;;;;;16.31;61.85;100567.75;5354848;32;34196;-70
2023/05/12 08:24:25;;;;;;;;;;;;;;;15.75;61.23;100569.28;5342006;32;34277;-75
2023/05/12 08:27:28;;;;;;;;;;;;;;;15.90;63.12;100568.38;5336788;32;34802;-70
2023/05/12 08:30:32;;;;;;;;;;;;;;;15.51;62.72;100578.59;5340345;32;35381;-71
2023/05/12 08:33:35;;;;;;;;;;;;;;;16.36;59.37;100571.00;5344414;32;35375;-76
2023/05/12 08:36:40;;;;;;;;;;;;;;;16.88;57.32;100575.78;5328548;32;34965;-70
2023/05/12 08:39:42;;;;;;;;;;;;;;;16.03;60.75;100580.91;5342313;32;34369;-71
2023/05/12 08:42:49;;;;;;;;;;;;;;;16.44;57.34;100567.88;5333467;32;34448;-69
2023/05/12 08:45:56;;;;;;;;;;;;;;;16.03;59.21;100581.78;5327271;32;45144;-76
2023/05/12 08:48:59;;;;;;;;;;;;;;;16.33;58.56;100575.59;5328249;32;34391;-75
2023/05/12 08:52:01;;;;;;;;;;;;;;;17.12;54.92;100586.66;5329319;32;34197;-72
2023/05/12 08:55:03;;;;;;;;;;;;;;;16.11;58.35;100591.94;5337725;32;34322;-75
2023/05/12 08:58:05;;;;;;;;;;;;;;;16.06;58.23;100594.88;5334885;32;36076;-73
2023/05/12 09:01:10;;;;;;;;;;;;;;;15.81;58.93;100594.56;5329509;32;33335;-70
2023/05/12 09:04:16;;;;;;;;;;;;;;;16.04;59.08;100593.25;5348681;32;35640;-71
2023/05/12 09:07:18;;;;;;;;;;;;;;;16.41;58.40;100587.47;5325447;32;44605;-71
2023/05/12 09:10:21;;;;;;;;;;;;;;;16.27;58.59;100590.09;5331049;32;34846;-75
2023/05/12 09:13:46;;;;;;;;;;;;;;;15.60;61.23;100594.84;5331238;32;36008;-76
2023/05/12 09:16:49;;;;;;;;;;;;;;;15.70;59.46;100597.84;5338011;32;44770;-72
2023/05/12 09:19:51;;;;;;;;;;;;;;;15.84;58.03;100599.69;5350070;32;34944;-71
2023/05/12 09:22:55;;;;;;;;;;;;;;;15.03;60.80;100612.16;5341743;32;34432;-72
2023/05/12 09:25:59;;;;;;;;;;;;;;;15.76;59.38;100609.87;5347654;32;35291;-72
2023/05/12 09:29:08;;;;;;;;;;;;;;;15.22;62.49;100612.00;5341127;32;34708;-76
2023/05/12 09:32:12;;;;;;;;;;;;;;;14.93;64.61;100627.66;5336057;32;35589;-85
2023/05/12 09:35:15;;;;;;;;;;;;;;;15.48;62.06;100631.75;5322944;32;34864;-72
2023/05/12 09:38:17;;;;;;;;;;;;;;;15.33;63.46;100641.41;5331671;32;45033;-77
2023/05/12 09:41:22;;;;;;;;;;;;;;;13.92;69.54;100638.09;5342347;32;34582;-72
2023/05/12 09:44:24;;;;;;;;;;;;;;;14.23;70.02;100640.06;5344842;32;34951;-75
2023/05/12 09:47:28;;;;;;;;;;;;;;;14.01;71.51;100652.62;5320719;32;34437;-75
2023/05/12 09:50:30;;;;;;;;;;;;;;;14.01;72.37;100650.84;5335317;32;34313;-82
2023/05/12 09:53:45;;;;;;;;;;;;;;;14.02;72.92;100644.63;5340892;32;36116;-77
2023/05/12 09:56:47;;;;;;;;;;;;;;;14.07;69.52;100647.03;5349179;32;44710;-68
2023/05/12 09:59:50;;;;;;;;;;;;;;;13.69;72.79;100660.31;5328389;32;34819;-71
2023/05/12 10:02:52;;;;;;;;;;;;;;;13.22;76.74;100659.91;5336953;32;35365;-69
2023/05/12 10:05:57;;;;;;;;;;;;;;;14.18;70.87;100647.37;5329159;32;35983;-70
2023/05/12 10:09:14;;;;;;;;;;;;;;;14.52;69.34;100653.63;5343583;32;34299;-72
2023/05/12 10:12:16;;;;;;;;;;;;;;;13.77;73.25;100654.66;5336118;32;44626;-80
2023/05/12 10:15:19;;;;;;;;;;;;;;;13.30;77.06;100662.19;5329745;32;34934;-92
2023/05/12 10:18:21;;;;;;;;;;;;;;;13.44;75.50;100657.97;5336049;32;35830;-66
2023/05/12 10:21:23;;;;;;;;;;;;;;;13.34;79.24;100664.63;5338997;32;34275;-77
2023/05/12 10:24:26;;;;;;;;;;;;;;;13.78;78.71;100662.53;5334758;32;35738;-75
2023/05/12 10:27:28;;;;;;;;;;;;;;;13.47;80.06;100657.84;5326613;32;34406;-72
2023/05/12 10:30:30;;;;;;;;;;;;;;;13.50;80.91;100662.97;5324807;32;34433;-69
2023/05/12 10:33:32;;;;;;;;;;;;;;;13.78;77.90;100648.44;5333833;32;36250;-76
2023/05/12 10:36:48;;;;;;;;;;;;;;;13.01;81.80;100653.78;5317557;32;34978;-71
2023/05/12 10:39:51;;;;;;;;;;;;;;;13.13;82.50;100649.72;5335322;32;45223;-67
2023/05/12 10:42:53;;;;;;;;;;;;;;;13.12;84.76;100648.00;5328146;32;35498;-75
2023/05/12 10:46:28;;;;;;;;;;;;;;;12.86;83.77;100655.31;5338486;32;34425;-77
2023/05/12 10:49:33;;;;;;;;;;;;;;;12.29;85.45;100656.88;5318543;32;34461;-66
2023/05/12 10:52:35;;;;;;;;;;;;;;;12.73;84.26;100662.91;5344762;32;34208;-69
2023/05/12 10:55:45;;;;;;;;;;;;;;;13.01;83.09;100661.72;5353408;32;34141;-83
2023/05/12 10:59:04;;;;;;;;;;;;;;;13.06;81.71;100659.69;5333427;32;46107;-81
2023/05/12 11:02:17;;;;;;;;;;;;;;;13.53;79.39;100660.19;5330444;32;35004;-69
2023/05/12 11:05:19;;;;;;;;;;;;;;;13.23;79.76;100664.25;5352024;32;45243;-69
2023/05/12 11:08:24;;;;;;;;;;;;;;;12.88;81.05;100664.03;5345932;32;34618;-69
2023/05/12 11:11:27;;;;;;;;;;;;;;;13.23;80.42;100658.97;5339033;32;34674;-70
2023/05/12 11:14:30;;;;;;;;;;;;;;;13.27;79.20;100663.19;5344804;32;35568;-78
2023/05/12 11:17:32;;;;;;;;;;;;;;;13.26;79.60;100669.38;5340558;32;35571;-81
2023/05/12 11:20:35;;;;;;;;;;;;;;;13.52;78.24;100666.41;5334687;32;35103;-70
2023/05/12 11:23:37;;;;;;;;;;;;;;;13.61;78.47;100659.84;5346926;32;34802;-69
2023/05/12 11:26:40;;;;;;;;;;;;;;;13.49;79.16;100661.25;5351513;32;35568;-81
2023/05/12 11:29:42;;;;;;;;;;;;;;;12.89;81.06;100655.19;5331712;32;34910;-68
2023/05/12 11:32:44;;;;;;;;;;;;;;;13.46;76.23;100658.78;5335897;32;34963;-69
2023/05/12 11:35:47;;;;;;;;;;;;;;;13.13;80.43;100658.50;5312165;32;46999;-69
2023/05/12 11:38:50;;;;;;;;;;;;;;;13.01;80.95;100657.28;5329609;32;34991;-69
2023/05/12 11:41:52;;;;;;;;;;;;;;;13.32;79.09;100660.31;5334611;32;34611;-70
2023/05/12 11:45:27;;;;;;;;;;;;;;;13.76;80.07;100663.53;5333883;32;34681;-69
2023/05/12 11:48:35;;;;;;;;;;;;;;;13.76;76.87;100651.16;5313945;32;35656;-69
2023/05/12 11:51:41;;;;;;;;;;;;;;;13.61;80.15;100654.56;5338651;32;34944;-82
2023/05/12 11:55:10;;;;;;;;;;;;;;;14.04;76.27;100648.06;5331440;32;35040;-82
2023/05/12 11:58:16;;;;;;;;;;;;;;;14.23;75.82;100655.06;5342458;32;34501;-82
2023/05/12 12:01:18;;;;;;;;;;;;;;;14.16;74.06;100657.16;5337332;32;44758;-81
2023/05/12 12:04:31;;;;;;;;;;;;;;;14.01;75.38;100661.41;5332577;32;35645;-68
2023/05/12 12:07:34;;;;;;;;;;;;;;;14.05;75.87;100656.84;5334747;32;35209;-69
2023/05/12 12:10:36;;;;;;;;;;;;;;;13.95;75.45;100655.56;5326304;32;34998;-81
2023/05/12 12:13:39;;;;;;;;;;;;;;;14.70;71.38;100660.63;5344351;32;35412;-68
2023/05/12 12:16:40;;;;;;;;;;;;;;;14.38;75.02;100656.09;5325893;32;34375;-83
2023/05/12 12:19:43;;;;;;;;;;;;;;;15.01;70.39;100661.66;5344636;32;35292;-82
2023/05/12 12:22:44;;;;;;;;;;;;;;;14.25;73.94;100661.16;5337899;32;35690;-69
2023/05/12 12:25:47;;;;;;;;;;;;;;;13.76;76.46;100674.94;5343453;32;44688;-82
2023/05/12 12:28:49;;;;;;;;;;;;;;;13.87;76.02;100666.53;5335922;32;35061;-69
2023/05/12 12:31:50;;;;;;;;;;;;;;;14.28;74.96;100669.75;5340023;32;34595;-82
2023/05/12 12:34:53;;;;;;;;;;;;;;;14.46;73.17;100662.72;5312842;32;35012;-69
2023/05/12 12:37:55;;;;;;;;;;;;;;;14.44;73.05;100672.50;5328483;32;35459;-83
2023/05/12 12:40:57;;;;;;;;;;;;;;;14.67;70.99;100668.69;5346006;32;35344;-82
2023/05/12 12:43:59;;;;;;;;;;;;;;;14.66;69.52;100671.44;5335122;32;33224;-81
2023/05/12 12:47:01;;;;;;;;;;;;;;;14.44;71.30;100666.38;5332373;32;35510;-84
2023/05/12 12:50:04;;;;;;;;;;;;;;;14.51;70.59;100667.78;5323801;32;37816;-70
2023/05/12 12:53:06;;;;;;;;;;;;;;;13.51;75.24;100677.87;5336972;32;34751;-69
2023/05/12 12:56:08;;;;;;;;;;;;;;;13.84;75.10;100669.28;5339410;32;35606;-69
2023/05/12 12:59:10;;;;;;;;;;;;;;;14.67;69.51;100659.91;5333456;32;34885;-82
2023/05/12 13:02:12;;;;;;;;;;;;;;;14.04;73.79;100674.50;5341393;32;35641;-70
2023/05/12 13:05:15;;;;;;;;;;;;;;;14.21;74.50;100664.84;5319420;32;35734;-81
2023/05/12 13:08:17;;;;;;;;;;;;;;;14.04;75.53;100673.63;5328508;32;44819;-70
2023/05/12 13:11:19;;;;;;;;;;;;;;;13.40;76.94;100666.97;5332713;32;34392;-68
2023/05/12 13:14:21;;;;;;;;;;;;;;;13.61;76.80;100662.47;5334004;32;34196;-69
2023/05/12 13:17:23;;;;;;;;;;;;;;;13.63;76.28;100665.03;5342449;32;35216;-69
2023/05/12 13:20:25;;;;;;;;;;;;;;;13.18;78.33;100666.22;5331411;32;34239;-69
2023/05/12 13:23:27;;;;;;;;;;;;;;;13.92;75.44;100668.94;5327392;32;35254;-68
2023/05/12 13:26:29;;;;;;;;;;;;;;;14.61;70.62;100664.56;5334732;32;35290;-69
2023/05/12 13:29:34;;;;;;;;;;;;;;;14.34;73.76;100665.97;5326711;32;35410;-82
2023/05/12 13:32:37;;;;;;;;;;;;;;;14.47;71.72;100658.28;5332556;32;34724;-83
2023/05/12 13:35:39;;;;;;;;;;;;;;;14.72;70.20;100664.03;5301086;32;34765;-78
2023/05/12 13:38:41;;;;;;;;;;;;;;;14.25;72.18;100655.84;5338013;32;35109;-70
2023/05/12 13:41:43;;;;;;;;;;;;;;;14.47;70.09;100667.06;5331269;32;35089;-82
2023/05/12 13:44:45;;;;;;;;;;;;;;;14.68;70.65;100669.56;5339916;32;37150;-69
2023/05/12 13:47:48;;;;;;;;;;;;;;;14.54;69.76;100665.81;5315564;32;34826;-82
2023/05/12 13:50:50;;;;;;;;;;;;;;;14.92;68.70;100672.72;5320724;32;35758;-70
2023/05/12 13:53:52;;;;;;;;;;;;;;;14.49;70.34;100667.87;5317689;32;34614;-69
2023/05/12 13:56:54;;;;;;;;;;;;;;;14.42;71.67;100668.22;5329992;32;34815;-69
2023/05/12 13:59:57;;;;;;;;;;;;;;;14.09;74.00;100667.16;5326453;32;33955;-69
2023/05/12 14:02:59;;;;;;;;;;;;;;;14.58;70.51;100670.03;5327722;32;34765;-82
2023/05/12 14:06:01;;;;;;;;;;;;;;;14.39;72.47;100663.94;5340107;32;35494;-69
2023/05/12 14:09:06;;;;;;;;;;;;;;;14.36;71.55;100669.38;5318493;32;37006;-69
2023/05/12 14:12:09;;;;;;;;;;;;;;;14.37;73.33;100673.75;5339037;32;34222;-77
2023/05/12 14:15:12;;;;;;;;;;;;;;;14.62;71.04;100663.66;5316709;32;34972;-70
2023/05/12 14:18:34;;;;;;;;;;;;;;;13.83;73.84;100679.00;5325224;32;34650;-83
2023/05/12 14:21:36;;;;;;;;;;;;;;;13.34;77.65;100687.53;5323882;32;35021;-82
2023/05/12 14:24:38;;;;;;;;;;;;;;;13.40;78.24;100684.63;5332320;32;35090;-81
2023/05/12 14:27:40;;;;;;;;;;;;;;;13.74;77.80;100683.88;5337662;32;35482;-68
2023/05/12 14:30:43;;;;;;;;;;;;;;;13.91;76.52;100689.22;5326950;32;35609;-69
2023/05/12 14:33:46;;;;;;;;;;;;;;;14.17;73.67;100687.06;5329069;32;46422;-68
2023/05/12 14:36:48;;;;;;;;;;;;;;;13.52;76.02;100691.94;5311652;32;34892;-69
2023/05/12 14:39:51;;;;;;;;;;;;;;;14.13;73.42;100704.03;5327379;32;34550;-82
2023/05/12 14:42:54;;;;;;;;;;;;;;;14.12;73.28;100702.34;5323961;32;34860;-70
2023/05/12 14:45:56;;;;;;;;;;;;;;;13.83;75.26;100717.78;5331547;32;34434;-77
2023/05/12 14:48:58;;;;;;;;;;;;;;;13.91;73.95;100715.66;5314807;32;34785;-81
2023/05/12 14:52:00;;;;;;;;;;;;;;;14.32;72.09;100711.00;5326622;32;34821;-81
2023/05/12 14:55:10;;;;;;;;;;;;;;;14.19;73.92;100711.66;5327826;32;35305;-69
2023/05/12 14:58:16;;;;;;;;;;;;;;;14.83;69.96;100716.41;5334996;32;35598;-77
2023/05/12 15:01:18;;;;;;;;;;;;;;;14.54;72.18;100716.09;5324762;32;45264;-82
2023/05/12 15:04:20;;;;;;;;;;;;;;;14.68;69.60;100715.37;5323460;32;34389;-70
2023/05/12 15:07:22;;;;;;;;;;;;;;;14.82;69.39;100722.66;5328244;32;33319;-68
2023/05/12 15:10:24;;;;;;;;;;;;;;;14.42;71.92;100729.88;5335097;32;38150;-71
2023/05/12 15:13:26;;;;;;;;;;;;;;;14.44;71.60;100721.91;5313181;32;34889;-77
2023/05/12 15:16:28;;;;;;;;;;;;;;;14.29;71.05;100726.13;5326805;32;35374;-78
2023/05/12 15:19:30;;;;;;;;;;;;;;;14.03;71.58;100730.03;5334208;32;35160;-82
2023/05/12 15:22:32;;;;;;;;;;;;;;;14.06;72.27;100725.47;5314837;32;36263;-68
2023/05/12 15:25:37;;;;;;;;;;;;;;;14.52;70.58;100728.53;5336206;32;36175;-69
2023/05/12 15:28:39;;;;;;;;;;;;;;;13.94;74.61;100734.00;5327402;32;35069;-78
2023/05/12 15:31:41;;;;;;;;;;;;;;;13.92;74.99;100732.34;5337252;32;37111;-68
2023/05/12 15:34:43;;;;;;;;;;;;;;;14.72;71.01;100734.63;5316955;32;35362;-83
2023/05/12 15:37:45;;;;;;;;;;;;;;;14.62;70.50;100728.94;5318693;32;35866;-82